sensor_id;sensor_type;location;lat;lon;timestamp;P1;P2;P0
42002;PMS7003;27693;50.506;30.832;2024-03-08T00:00:17;72.00;54.40;34.90
42002;PMS7003;27693;50.506;30.832;2024-03-08T00:01:23;76.40;56.30;35.30
42002;PMS7003;27693;50.506;30.832;2024-03-08T00:02:26;74.70;55.40;35.40
42002;PMS7003;27693;50.506;30.832;2024-03-08T00:03:28;71.90;52.00;32.30
42002;PMS7003;27693;50.506;30.832;2024-03-08T00:04:30;82.22;59.56;36.67
42002;PMS7003;27693;50.506;30.832;2024-03-08T00:05:32;67.44;53.56;34.33
42002;PMS7003;27693;50.506;30.832;2024-03-08T00:06:35;75.00;55.10;35.00
42002;PMS7003;27693;50.506;30.832;2024-03-08T00:07:38;72.20;52.70;32.60
42002;PMS7003;27693;50.506;30.832;2024-03-08T00:08:41;73.00;52.70;34.40
42002;PMS7003;27693;50.506;30.832;2024-03-08T00:09:44;71.90;53.00;34.80
42002;PMS7003;27693;50.506;30.832;2024-03-08T00:10:46;69.30;51.70;33.20
42002;PMS7003;27693;50.506;30.832;2024-03-08T00:11:48;66.20;51.30;34.10
42002;PMS7003;27693;50.506;30.832;2024-03-08T00:12:52;53.20;45.30;28.80
42002;PMS7003;27693;50.506;30.832;2024-03-08T00:13:55;67.09;51.45;32.64
42002;PMS7003;27693;50.506;30.832;2024-03-08T00:14:57;66.70;50.70;33.10
42002;PMS7003;27693;50.506;30.832;2024-03-08T00:15:59;71.90;52.90;32.90
42002;PMS7003;27693;50.506;30.832;2024-03-08T00:17:02;69.50;52.80;32.90
42002;PMS7003;27693;50.506;30.832;2024-03-08T00:18:05;67.70;51.60;33.30
42002;PMS7003;27693;50.506;30.832;2024-03-08T00:19:08;72.00;52.00;32.82
42002;PMS7003;27693;50.506;30.832;2024-03-08T00:20:11;66.60;50.40;34.20
42002;PMS7003;27693;50.506;30.832;2024-03-08T00:21:15;68.80;52.10;33.30
42002;PMS7003;27693;50.506;30.832;2024-03-08T00:22:17;67.50;50.40;33.20
42002;PMS7003;27693;50.506;30.832;2024-03-08T00:23:19;66.60;51.00;32.70
42002;PMS7003;27693;50.506;30.832;2024-03-08T00:24:21;65.60;50.50;32.70
42002;PMS7003;27693;50.506;30.832;2024-03-08T00:25:26;65.00;48.00;32.20
42002;PMS7003;27693;50.506;30.832;2024-03-08T00:26:28;67.33;48.33;31.78
42002;PMS7003;27693;50.506;30.832;2024-03-08T00:27:32;71.00;52.30;33.00
42002;PMS7003;27693;50.506;30.832;2024-03-08T00:28:34;68.20;49.90;32.60
42002;PMS7003;27693;50.506;30.832;2024-03-08T00:29:37;66.60;50.80;33.20
42002;PMS7003;27693;50.506;30.832;2024-03-08T00:30:40;69.50;51.20;33.50
42002;PMS7003;27693;50.506;30.832;2024-03-08T00:31:44;70.36;52.09;32.64
42002;PMS7003;27693;50.506;30.832;2024-03-08T00:32:47;70.18;49.73;31.27
42002;PMS7003;27693;50.506;30.832;2024-03-08T00:33:50;68.40;49.80;30.60
42002;PMS7003;27693;50.506;30.832;2024-03-08T00:34:54;69.10;51.50;33.40
42002;PMS7003;27693;50.506;30.832;2024-03-08T00:35:56;66.90;48.70;32.00
42002;PMS7003;27693;50.506;30.832;2024-03-08T00:36:59;73.90;50.60;32.60
42002;PMS7003;27693;50.506;30.832;2024-03-08T00:38:02;64.00;48.90;32.10
42002;PMS7003;27693;50.506;30.832;2024-03-08T00:39:04;52.40;42.20;29.70
42002;PMS7003;27693;50.506;30.832;2024-03-08T00:40:10;70.30;52.40;34.10
42002;PMS7003;27693;50.506;30.832;2024-03-08T00:41:12;59.45;42.00;26.36
42002;PMS7003;27693;50.506;30.832;2024-03-08T00:42:15;71.50;53.00;33.90
42002;PMS7003;27693;50.506;30.832;2024-03-08T00:43:18;72.30;53.50;35.50
42002;PMS7003;27693;50.506;30.832;2024-03-08T00:44:20;68.80;51.20;34.00
42002;PMS7003;27693;50.506;30.832;2024-03-08T00:45:24;68.10;50.70;33.30
42002;PMS7003;27693;50.506;30.832;2024-03-08T00:46:27;73.40;53.40;34.20
42002;PMS7003;27693;50.506;30.832;2024-03-08T00:47:30;73.40;53.90;33.80
42002;PMS7003;27693;50.506;30.832;2024-03-08T00:48:32;73.00;54.67;34.67
42002;PMS7003;27693;50.506;30.832;2024-03-08T00:49:35;69.90;52.90;32.50
42002;PMS7003;27693;50.506;30.832;2024-03-08T00:50:41;70.70;53.80;34.10
42002;PMS7003;27693;50.506;30.832;2024-03-08T00:51:44;69.50;52.70;33.70
42002;PMS7003;27693;50.506;30.832;2024-03-08T00:52:46;69.40;53.60;33.70
42002;PMS7003;27693;50.506;30.832;2024-03-08T00:53:50;68.30;49.60;33.70
42002;PMS7003;27693;50.506;30.832;2024-03-08T00:54:52;77.20;54.10;34.60
42002;PMS7003;27693;50.506;30.832;2024-03-08T00:55:55;66.70;48.90;32.00
42002;PMS7003;27693;50.506;30.832;2024-03-08T00:56:58;75.30;56.60;35.60
42002;PMS7003;27693;50.506;30.832;2024-03-08T00:58:02;65.00;49.00;31.00
42002;PMS7003;27693;50.506;30.832;2024-03-08T00:59:06;69.70;54.90;35.50
42002;PMS7003;27693;50.506;30.832;2024-03-08T01:00:09;67.30;51.90;34.20
42002;PMS7003;27693;50.506;30.832;2024-03-08T01:01:14;71.30;53.40;33.80
42002;PMS7003;27693;50.506;30.832;2024-03-08T01:02:19;71.00;53.50;34.80
42002;PMS7003;27693;50.506;30.832;2024-03-08T01:03:25;73.40;54.40;34.90
42002;PMS7003;27693;50.506;30.832;2024-03-08T01:04:27;74.40;55.20;36.20
42002;PMS7003;27693;50.506;30.832;2024-03-08T01:05:33;71.80;54.20;34.50
42002;PMS7003;27693;50.506;30.832;2024-03-08T01:06:37;73.10;52.00;33.70
42002;PMS7003;27693;50.506;30.832;2024-03-08T01:07:39;73.50;53.20;34.30
42002;PMS7003;27693;50.506;30.832;2024-03-08T01:08:41;71.89;53.67;35.11
42002;PMS7003;27693;50.506;30.832;2024-03-08T01:09:44;72.91;55.64;34.73
42002;PMS7003;27693;50.506;30.832;2024-03-08T01:10:47;67.60;48.90;34.10
42002;PMS7003;27693;50.506;30.832;2024-03-08T01:11:55;70.30;54.00;36.30
42002;PMS7003;27693;50.506;30.832;2024-03-08T01:12:58;66.40;48.20;29.90
42002;PMS7003;27693;50.506;30.832;2024-03-08T01:14:03;70.30;53.70;35.00
42002;PMS7003;27693;50.506;30.832;2024-03-08T01:15:06;70.90;53.40;34.10
42002;PMS7003;27693;50.506;30.832;2024-03-08T01:16:08;70.50;54.50;36.10
42002;PMS7003;27693;50.506;30.832;2024-03-08T01:17:12;64.40;48.70;25.80
42002;PMS7003;27693;50.506;30.832;2024-03-08T01:18:15;68.30;52.30;33.30
42002;PMS7003;27693;50.506;30.832;2024-03-08T01:19:18;71.73;54.18;33.00
42002;PMS7003;27693;50.506;30.832;2024-03-08T01:20:20;57.90;41.30;28.80
42002;PMS7003;27693;50.506;30.832;2024-03-08T01:21:23;72.70;54.90;34.90
42002;PMS7003;27693;50.506;30.832;2024-03-08T01:22:25;70.90;54.00;35.00
42002;PMS7003;27693;50.506;30.832;2024-03-08T01:23:30;64.10;49.00;32.40
42002;PMS7003;27693;50.506;30.832;2024-03-08T01:24:32;66.91;48.09;30.73
42002;PMS7003;27693;50.506;30.832;2024-03-08T01:25:36;71.80;52.00;33.80
42002;PMS7003;27693;50.506;30.832;2024-03-08T01:26:38;61.33;47.56;29.67
42002;PMS7003;27693;50.506;30.832;2024-03-08T01:27:40;71.56;51.00;32.33
42002;PMS7003;27693;50.506;30.832;2024-03-08T01:28:43;69.90;50.90;32.20
42002;PMS7003;27693;50.506;30.832;2024-03-08T01:29:45;68.11;52.00;33.89
42002;PMS7003;27693;50.506;30.832;2024-03-08T01:30:48;65.30;48.20;33.70
42002;PMS7003;27693;50.506;30.832;2024-03-08T01:31:51;66.50;48.80;31.60
42002;PMS7003;27693;50.506;30.832;2024-03-08T01:32:55;64.09;49.73;31.64
42002;PMS7003;27693;50.506;30.832;2024-03-08T01:33:57;65.10;51.00;32.20
42002;PMS7003;27693;50.506;30.832;2024-03-08T01:35:00;69.70;52.40;32.90
42002;PMS7003;27693;50.506;30.832;2024-03-08T01:36:05;69.90;53.10;34.00
42002;PMS7003;27693;50.506;30.832;2024-03-08T01:37:08;65.20;48.60;30.70
42002;PMS7003;27693;50.506;30.832;2024-03-08T01:38:10;58.40;46.50;31.40
42002;PMS7003;27693;50.506;30.832;2024-03-08T01:39:13;52.50;41.70;28.60
42002;PMS7003;27693;50.506;30.832;2024-03-08T01:40:15;62.90;46.00;29.70
42002;PMS7003;27693;50.506;30.832;2024-03-08T01:41:18;71.20;52.80;33.60
42002;PMS7003;27693;50.506;30.832;2024-03-08T01:42:21;69.90;54.80;35.40
42002;PMS7003;27693;50.506;30.832;2024-03-08T01:43:27;71.50;52.50;31.70
42002;PMS7003;27693;50.506;30.832;2024-03-08T01:44:30;64.80;49.50;33.10
42002;PMS7003;27693;50.506;30.832;2024-03-08T01:45:33;68.90;50.20;32.50
42002;PMS7003;27693;50.506;30.832;2024-03-08T01:46:36;68.00;49.30;32.90
42002;PMS7003;27693;50.506;30.832;2024-03-08T01:47:38;63.50;47.30;32.50
42002;PMS7003;27693;50.506;30.832;2024-03-08T01:48:42;71.40;52.60;33.00
42002;PMS7003;27693;50.506;30.832;2024-03-08T01:49:45;68.90;50.70;33.40
42002;PMS7003;27693;50.506;30.832;2024-03-08T01:50:49;66.70;50.40;32.50
42002;PMS7003;27693;50.506;30.832;2024-03-08T01:51:52;69.70;48.50;32.90
42002;PMS7003;27693;50.506;30.832;2024-03-08T01:52:55;69.90;50.10;33.60
42002;PMS7003;27693;50.506;30.832;2024-03-08T01:53:59;63.80;47.80;30.80
42002;PMS7003;27693;50.506;30.832;2024-03-08T01:55:04;68.90;52.70;33.80
42002;PMS7003;27693;50.506;30.832;2024-03-08T01:56:10;69.60;51.50;32.20
42002;PMS7003;27693;50.506;30.832;2024-03-08T01:57:15;67.80;53.00;34.40
42002;PMS7003;27693;50.506;30.832;2024-03-08T01:58:17;63.60;48.60;30.70
42002;PMS7003;27693;50.506;30.832;2024-03-08T01:59:22;70.10;51.70;34.40
42002;PMS7003;27693;50.506;30.832;2024-03-08T02:00:26;67.30;49.60;31.50
42002;PMS7003;27693;50.506;30.832;2024-03-08T02:01:31;71.90;49.10;32.30
42002;PMS7003;27693;50.506;30.832;2024-03-08T02:02:35;67.60;50.80;31.70
42002;PMS7003;27693;50.506;30.832;2024-03-08T02:03:39;61.70;51.60;33.00
42002;PMS7003;27693;50.506;30.832;2024-03-08T02:04:42;71.80;53.80;34.00
42002;PMS7003;27693;50.506;30.832;2024-03-08T02:05:44;75.90;54.30;33.60
42002;PMS7003;27693;50.506;30.832;2024-03-08T02:06:47;68.80;48.80;33.90
42002;PMS7003;27693;50.506;30.832;2024-03-08T02:07:50;64.30;46.70;31.30
42002;PMS7003;27693;50.506;30.832;2024-03-08T02:08:53;71.90;51.00;34.20
42002;PMS7003;27693;50.506;30.832;2024-03-08T02:09:55;68.70;51.40;34.30
42002;PMS7003;27693;50.506;30.832;2024-03-08T02:10:58;66.10;50.70;32.60
42002;PMS7003;27693;50.506;30.832;2024-03-08T02:12:01;67.50;49.30;32.30
42002;PMS7003;27693;50.506;30.832;2024-03-08T02:13:05;77.80;56.30;36.20
42002;PMS7003;27693;50.506;30.832;2024-03-08T02:14:08;70.80;53.00;35.30
42002;PMS7003;27693;50.506;30.832;2024-03-08T02:15:11;73.00;51.45;33.73
42002;PMS7003;27693;50.506;30.832;2024-03-08T02:16:19;70.40;54.00;34.40
42002;PMS7003;27693;50.506;30.832;2024-03-08T02:17:24;61.60;44.30;31.80
42002;PMS7003;27693;50.506;30.832;2024-03-08T02:18:27;70.50;52.60;34.70
42002;PMS7003;27693;50.506;30.832;2024-03-08T02:19:31;71.70;53.90;34.00
42002;PMS7003;27693;50.506;30.832;2024-03-08T02:20:34;72.40;54.20;34.30
42002;PMS7003;27693;50.506;30.832;2024-03-08T02:21:37;72.30;51.90;34.20
42002;PMS7003;27693;50.506;30.832;2024-03-08T02:22:40;68.20;51.50;34.20
42002;PMS7003;27693;50.506;30.832;2024-03-08T02:23:42;73.60;52.20;33.80
42002;PMS7003;27693;50.506;30.832;2024-03-08T02:24:44;73.10;53.10;33.40
42002;PMS7003;27693;50.506;30.832;2024-03-08T02:25:48;71.20;51.30;34.00
42002;PMS7003;27693;50.506;30.832;2024-03-08T02:26:50;69.30;51.50;32.90
42002;PMS7003;27693;50.506;30.832;2024-03-08T02:27:53;71.90;53.50;34.80
42002;PMS7003;27693;50.506;30.832;2024-03-08T02:28:56;72.40;53.70;33.90
42002;PMS7003;27693;50.506;30.832;2024-03-08T02:29:58;67.60;51.00;33.30
42002;PMS7003;27693;50.506;30.832;2024-03-08T02:31:01;73.64;53.00;34.91
42002;PMS7003;27693;50.506;30.832;2024-03-08T02:32:03;72.70;52.50;33.80
42002;PMS7003;27693;50.506;30.832;2024-03-08T02:33:06;76.30;56.50;36.20
42002;PMS7003;27693;50.506;30.832;2024-03-08T02:34:11;69.20;52.70;34.10
42002;PMS7003;27693;50.506;30.832;2024-03-08T02:35:13;72.50;53.10;34.70
42002;PMS7003;27693;50.506;30.832;2024-03-08T02:36:16;69.50;52.90;34.30
42002;PMS7003;27693;50.506;30.832;2024-03-08T02:37:18;73.20;54.90;34.80
42002;PMS7003;27693;50.506;30.832;2024-03-08T02:38:21;72.70;53.00;34.70
42002;PMS7003;27693;50.506;30.832;2024-03-08T02:39:26;70.60;53.80;34.30
42002;PMS7003;27693;50.506;30.832;2024-03-08T02:40:29;69.90;53.10;33.60
42002;PMS7003;27693;50.506;30.832;2024-03-08T02:41:32;68.10;52.10;34.20
42002;PMS7003;27693;50.506;30.832;2024-03-08T02:42:34;71.44;52.78;33.56
42002;PMS7003;27693;50.506;30.832;2024-03-08T02:43:37;71.20;54.50;35.80
42002;PMS7003;27693;50.506;30.832;2024-03-08T02:44:43;69.82;53.82;34.36
42002;PMS7003;27693;50.506;30.832;2024-03-08T02:45:49;73.30;55.20;36.40
42002;PMS7003;27693;50.506;30.832;2024-03-08T02:46:52;72.20;56.50;36.20
42002;PMS7003;27693;50.506;30.832;2024-03-08T02:47:56;74.80;57.60;35.70
42002;PMS7003;27693;50.506;30.832;2024-03-08T02:48:59;74.60;55.80;36.80
42002;PMS7003;27693;50.506;30.832;2024-03-08T02:50:01;70.50;54.80;35.10
42002;PMS7003;27693;50.506;30.832;2024-03-08T02:51:05;75.50;53.90;34.10
42002;PMS7003;27693;50.506;30.832;2024-03-08T02:52:08;77.00;55.30;35.10
42002;PMS7003;27693;50.506;30.832;2024-03-08T02:53:11;72.70;54.20;33.90
42002;PMS7003;27693;50.506;30.832;2024-03-08T02:54:14;76.80;55.30;35.60
42002;PMS7003;27693;50.506;30.832;2024-03-08T02:55:20;73.60;56.30;35.20
42002;PMS7003;27693;50.506;30.832;2024-03-08T02:56:23;70.00;52.00;32.80
42002;PMS7003;27693;50.506;30.832;2024-03-08T02:57:25;71.20;52.20;33.80
42002;PMS7003;27693;50.506;30.832;2024-03-08T02:58:29;72.00;54.40;34.80
42002;PMS7003;27693;50.506;30.832;2024-03-08T02:59:31;71.30;54.90;35.70
42002;PMS7003;27693;50.506;30.832;2024-03-08T03:00:33;73.10;53.60;33.80
42002;PMS7003;27693;50.506;30.832;2024-03-08T03:01:36;69.20;52.10;34.00
42002;PMS7003;27693;50.506;30.832;2024-03-08T03:02:39;73.18;54.45;35.09
42002;PMS7003;27693;50.506;30.832;2024-03-08T03:03:42;75.10;54.90;34.80
42002;PMS7003;27693;50.506;30.832;2024-03-08T03:04:44;70.30;53.90;34.60
42002;PMS7003;27693;50.506;30.832;2024-03-08T03:05:46;77.56;57.44;37.67
42002;PMS7003;27693;50.506;30.832;2024-03-08T03:06:51;72.60;54.90;34.90
42002;PMS7003;27693;50.506;30.832;2024-03-08T03:07:53;70.90;52.90;35.00
42002;PMS7003;27693;50.506;30.832;2024-03-08T03:08:55;71.10;53.70;34.80
42002;PMS7003;27693;50.506;30.832;2024-03-08T03:09:59;74.00;56.09;35.18
42002;PMS7003;27693;50.506;30.832;2024-03-08T03:11:04;57.80;45.10;25.60
42002;PMS7003;27693;50.506;30.832;2024-03-08T03:12:06;78.00;57.78;38.22
42002;PMS7003;27693;50.506;30.832;2024-03-08T03:13:10;75.20;56.50;37.70
42002;PMS7003;27693;50.506;30.832;2024-03-08T03:14:13;75.70;57.20;36.70
42002;PMS7003;27693;50.506;30.832;2024-03-08T03:15:17;80.10;58.70;38.00
42002;PMS7003;27693;50.506;30.832;2024-03-08T03:16:20;76.10;56.20;37.10
42002;PMS7003;27693;50.506;30.832;2024-03-08T03:17:23;75.40;56.70;38.20
42002;PMS7003;27693;50.506;30.832;2024-03-08T03:18:26;79.82;59.91;38.27
42002;PMS7003;27693;50.506;30.832;2024-03-08T03:19:29;76.00;55.50;36.80
42002;PMS7003;27693;50.506;30.832;2024-03-08T03:20:32;77.82;57.00;37.82
42002;PMS7003;27693;50.506;30.832;2024-03-08T03:21:36;78.80;58.10;38.70
42002;PMS7003;27693;50.506;30.832;2024-03-08T03:22:40;75.00;55.10;34.70
42002;PMS7003;27693;50.506;30.832;2024-03-08T03:23:42;82.00;60.20;38.30
42002;PMS7003;27693;50.506;30.832;2024-03-08T03:24:45;74.20;58.20;37.50
42002;PMS7003;27693;50.506;30.832;2024-03-08T03:25:48;77.73;57.00;38.00
42002;PMS7003;27693;50.506;30.832;2024-03-08T03:26:50;81.20;59.60;38.10
42002;PMS7003;27693;50.506;30.832;2024-03-08T03:27:53;68.60;50.50;33.80
42002;PMS7003;27693;50.506;30.832;2024-03-08T03:28:58;77.20;57.50;37.10
42002;PMS7003;27693;50.506;30.832;2024-03-08T03:30:02;76.40;56.70;37.20
42002;PMS7003;27693;50.506;30.832;2024-03-08T03:31:08;79.00;58.80;37.70
42002;PMS7003;27693;50.506;30.832;2024-03-08T03:32:12;76.00;55.60;36.80
42002;PMS7003;27693;50.506;30.832;2024-03-08T03:33:15;75.73;57.64;36.36
42002;PMS7003;27693;50.506;30.832;2024-03-08T03:34:19;75.70;55.40;34.80
42002;PMS7003;27693;50.506;30.832;2024-03-08T03:35:21;73.40;55.10;36.50
42002;PMS7003;27693;50.506;30.832;2024-03-08T03:36:24;75.10;56.80;37.00
42002;PMS7003;27693;50.506;30.832;2024-03-08T03:37:26;72.60;55.00;35.80
42002;PMS7003;27693;50.506;30.832;2024-03-08T03:38:30;80.50;58.80;37.80
42002;PMS7003;27693;50.506;30.832;2024-03-08T03:39:32;71.20;54.80;34.60
42002;PMS7003;27693;50.506;30.832;2024-03-08T03:40:36;78.20;56.20;36.50
42002;PMS7003;27693;50.506;30.832;2024-03-08T03:41:39;71.00;51.80;34.00
42002;PMS7003;27693;50.506;30.832;2024-03-08T03:42:43;75.20;56.00;35.20
42002;PMS7003;27693;50.506;30.832;2024-03-08T03:43:45;75.10;57.20;36.60
42002;PMS7003;27693;50.506;30.832;2024-03-08T03:44:47;75.33;56.67;35.89
42002;PMS7003;27693;50.506;30.832;2024-03-08T03:45:51;74.20;54.90;34.50
42002;PMS7003;27693;50.506;30.832;2024-03-08T03:46:54;74.60;56.00;34.40
42002;PMS7003;27693;50.506;30.832;2024-03-08T03:47:57;63.18;47.82;32.09
42002;PMS7003;27693;50.506;30.832;2024-03-08T03:49:01;74.60;55.30;35.20
42002;PMS7003;27693;50.506;30.832;2024-03-08T03:50:06;69.20;51.60;34.00
42002;PMS7003;27693;50.506;30.832;2024-03-08T03:51:11;72.60;53.70;34.90
42002;PMS7003;27693;50.506;30.832;2024-03-08T03:52:14;67.00;48.30;28.80
42002;PMS7003;27693;50.506;30.832;2024-03-08T03:53:17;66.50;50.90;31.40
42002;PMS7003;27693;50.506;30.832;2024-03-08T03:54:19;71.60;55.00;34.70
42002;PMS7003;27693;50.506;30.832;2024-03-08T03:55:23;76.00;56.60;35.90
42002;PMS7003;27693;50.506;30.832;2024-03-08T03:56:26;75.91;54.55;35.00
42002;PMS7003;27693;50.506;30.832;2024-03-08T03:57:29;73.30;55.20;35.30
42002;PMS7003;27693;50.506;30.832;2024-03-08T03:58:31;65.30;49.90;32.40
42002;PMS7003;27693;50.506;30.832;2024-03-08T03:59:35;72.40;53.80;35.40
42002;PMS7003;27693;50.506;30.832;2024-03-08T04:00:38;69.18;51.64;33.00
42002;PMS7003;27693;50.506;30.832;2024-03-08T04:01:43;70.80;50.90;33.00
42002;PMS7003;27693;50.506;30.832;2024-03-08T04:02:46;66.60;51.70;33.40
42002;PMS7003;27693;50.506;30.832;2024-03-08T04:03:49;76.60;57.10;35.90
42002;PMS7003;27693;50.506;30.832;2024-03-08T04:04:51;74.50;54.80;35.20
42002;PMS7003;27693;50.506;30.832;2024-03-08T04:05:56;72.90;55.00;35.50
42002;PMS7003;27693;50.506;30.832;2024-03-08T04:06:59;71.36;54.45;35.55
42002;PMS7003;27693;50.506;30.832;2024-03-08T04:08:01;76.20;55.70;36.60
42002;PMS7003;27693;50.506;30.832;2024-03-08T04:09:04;77.60;57.40;36.10
42002;PMS7003;27693;50.506;30.832;2024-03-08T04:10:07;80.00;58.70;37.50
42002;PMS7003;27693;50.506;30.832;2024-03-08T04:11:13;77.70;57.20;36.90
42002;PMS7003;27693;50.506;30.832;2024-03-08T04:12:17;81.60;60.10;37.20
42002;PMS7003;27693;50.506;30.832;2024-03-08T04:13:20;80.90;59.50;37.60
42002;PMS7003;27693;50.506;30.832;2024-03-08T04:14:23;74.30;55.80;35.40
42002;PMS7003;27693;50.506;30.832;2024-03-08T04:15:25;83.40;61.40;38.80
42002;PMS7003;27693;50.506;30.832;2024-03-08T04:16:27;83.80;63.10;39.10
42002;PMS7003;27693;50.506;30.832;2024-03-08T04:17:30;80.40;59.80;37.20
42002;PMS7003;27693;50.506;30.832;2024-03-08T04:18:34;76.20;56.40;35.40
42002;PMS7003;27693;50.506;30.832;2024-03-08T04:19:38;80.80;57.90;37.10
42002;PMS7003;27693;50.506;30.832;2024-03-08T04:20:41;74.50;54.60;35.50
42002;PMS7003;27693;50.506;30.832;2024-03-08T04:21:43;72.00;54.30;34.30
42002;PMS7003;27693;50.506;30.832;2024-03-08T04:22:46;74.20;53.50;34.20
42002;PMS7003;27693;50.506;30.832;2024-03-08T04:23:50;75.10;57.00;36.80
42002;PMS7003;27693;50.506;30.832;2024-03-08T04:24:53;74.80;55.00;35.10
42002;PMS7003;27693;50.506;30.832;2024-03-08T04:25:56;79.60;57.30;37.70
42002;PMS7003;27693;50.506;30.832;2024-03-08T04:26:59;79.20;58.40;36.60
42002;PMS7003;27693;50.506;30.832;2024-03-08T04:28:02;79.36;58.27;37.73
42002;PMS7003;27693;50.506;30.832;2024-03-08T04:29:04;79.70;57.10;37.70
42002;PMS7003;27693;50.506;30.832;2024-03-08T04:30:07;76.80;56.10;36.30
42002;PMS7003;27693;50.506;30.832;2024-03-08T04:31:11;74.10;56.50;36.20
42002;PMS7003;27693;50.506;30.832;2024-03-08T04:32:13;75.60;56.50;36.50
42002;PMS7003;27693;50.506;30.832;2024-03-08T04:33:15;75.44;57.56;36.44
42002;PMS7003;27693;50.506;30.832;2024-03-08T04:34:20;70.50;53.60;34.70
42002;PMS7003;27693;50.506;30.832;2024-03-08T04:35:23;70.20;53.80;34.10
42002;PMS7003;27693;50.506;30.832;2024-03-08T04:36:25;71.00;53.30;33.30
42002;PMS7003;27693;50.506;30.832;2024-03-08T04:37:28;72.40;54.70;35.10
42002;PMS7003;27693;50.506;30.832;2024-03-08T04:38:34;74.80;53.10;33.60
42002;PMS7003;27693;50.506;30.832;2024-03-08T04:39:38;71.70;54.30;34.20
42002;PMS7003;27693;50.506;30.832;2024-03-08T04:40:41;72.00;52.80;34.30
42002;PMS7003;27693;50.506;30.832;2024-03-08T04:41:43;66.50;51.40;35.20
42002;PMS7003;27693;50.506;30.832;2024-03-08T04:42:45;72.20;54.30;33.20
42002;PMS7003;27693;50.506;30.832;2024-03-08T04:43:48;72.20;55.30;35.40
42002;PMS7003;27693;50.506;30.832;2024-03-08T04:44:51;71.20;54.50;35.00
42002;PMS7003;27693;50.506;30.832;2024-03-08T04:45:55;68.60;50.60;32.60
42002;PMS7003;27693;50.506;30.832;2024-03-08T04:46:57;75.20;55.60;36.00
42002;PMS7003;27693;50.506;30.832;2024-03-08T04:48:00;71.90;52.70;33.40
42002;PMS7003;27693;50.506;30.832;2024-03-08T04:49:03;75.30;56.10;33.90
42002;PMS7003;27693;50.506;30.832;2024-03-08T04:50:06;67.10;50.10;33.20
42002;PMS7003;27693;50.506;30.832;2024-03-08T04:51:12;71.60;54.30;34.20
42002;PMS7003;27693;50.506;30.832;2024-03-08T04:52:14;79.50;58.60;36.30
42002;PMS7003;27693;50.506;30.832;2024-03-08T04:53:16;76.00;57.60;37.10
42002;PMS7003;27693;50.506;30.832;2024-03-08T04:54:20;75.40;57.40;36.80
42002;PMS7003;27693;50.506;30.832;2024-03-08T04:55:24;75.60;56.80;36.80
42002;PMS7003;27693;50.506;30.832;2024-03-08T04:56:26;77.20;58.70;37.70
42002;PMS7003;27693;50.506;30.832;2024-03-08T04:57:30;75.40;56.80;35.60
42002;PMS7003;27693;50.506;30.832;2024-03-08T04:58:32;71.10;55.00;35.80
42002;PMS7003;27693;50.506;30.832;2024-03-08T04:59:38;70.80;54.40;33.50
42002;PMS7003;27693;50.506;30.832;2024-03-08T05:00:41;73.40;55.10;35.90
42002;PMS7003;27693;50.506;30.832;2024-03-08T05:01:44;73.10;54.90;36.20
42002;PMS7003;27693;50.506;30.832;2024-03-08T05:02:46;62.80;43.70;27.50
42002;PMS7003;27693;50.506;30.832;2024-03-08T05:03:49;67.50;49.50;31.60
42002;PMS7003;27693;50.506;30.832;2024-03-08T05:04:53;74.80;55.10;34.60
42002;PMS7003;27693;50.506;30.832;2024-03-08T05:05:56;73.00;54.00;35.50
42002;PMS7003;27693;50.506;30.832;2024-03-08T05:06:59;72.70;55.20;34.30
42002;PMS7003;27693;50.506;30.832;2024-03-08T05:08:03;58.50;49.30;33.40
42002;PMS7003;27693;50.506;30.832;2024-03-08T05:09:07;70.20;53.20;33.60
42002;PMS7003;27693;50.506;30.832;2024-03-08T05:10:18;64.10;49.40;31.60
42002;PMS7003;27693;50.506;30.832;2024-03-08T05:11:21;72.60;52.60;34.00
42002;PMS7003;27693;50.506;30.832;2024-03-08T05:12:23;69.30;50.60;32.90
42002;PMS7003;27693;50.506;30.832;2024-03-08T05:13:27;68.90;52.10;33.40
42002;PMS7003;27693;50.506;30.832;2024-03-08T05:14:29;69.50;52.40;34.70
42002;PMS7003;27693;50.506;30.832;2024-03-08T05:15:32;69.40;51.10;33.50
42002;PMS7003;27693;50.506;30.832;2024-03-08T05:16:36;72.10;53.10;33.40
42002;PMS7003;27693;50.506;30.832;2024-03-08T05:17:38;71.22;53.56;34.67
42002;PMS7003;27693;50.506;30.832;2024-03-08T05:18:43;75.30;57.00;36.20
42002;PMS7003;27693;50.506;30.832;2024-03-08T05:19:45;70.60;54.70;35.50
42002;PMS7003;27693;50.506;30.832;2024-03-08T05:20:48;80.10;58.20;37.20
42002;PMS7003;27693;50.506;30.832;2024-03-08T05:21:51;77.10;55.90;36.20
42002;PMS7003;27693;50.506;30.832;2024-03-08T05:22:54;74.27;55.82;36.09
42002;PMS7003;27693;50.506;30.832;2024-03-08T05:23:57;70.30;53.60;35.50
42002;PMS7003;27693;50.506;30.832;2024-03-08T05:24:59;76.10;57.70;36.20
42002;PMS7003;27693;50.506;30.832;2024-03-08T05:26:03;78.60;56.70;36.70
42002;PMS7003;27693;50.506;30.832;2024-03-08T05:27:07;79.90;58.10;37.60
42002;PMS7003;27693;50.506;30.832;2024-03-08T05:28:09;74.10;54.40;36.20
42002;PMS7003;27693;50.506;30.832;2024-03-08T05:29:13;79.00;57.90;37.10
42002;PMS7003;27693;50.506;30.832;2024-03-08T05:30:16;71.30;56.10;37.50
42002;PMS7003;27693;50.506;30.832;2024-03-08T05:31:23;84.50;62.20;40.00
42002;PMS7003;27693;50.506;30.832;2024-03-08T05:32:26;87.30;67.20;41.10
42002;PMS7003;27693;50.506;30.832;2024-03-08T05:33:30;82.40;61.30;39.50
42002;PMS7003;27693;50.506;30.832;2024-03-08T05:34:32;76.80;57.70;39.70
42002;PMS7003;27693;50.506;30.832;2024-03-08T05:35:34;87.30;62.50;41.10
42002;PMS7003;27693;50.506;30.832;2024-03-08T05:36:38;79.30;58.70;38.10
42002;PMS7003;27693;50.506;30.832;2024-03-08T05:37:40;80.40;59.40;38.00
42002;PMS7003;27693;50.506;30.832;2024-03-08T05:38:44;78.60;60.50;39.30
42002;PMS7003;27693;50.506;30.832;2024-03-08T05:39:46;89.50;71.10;44.80
42002;PMS7003;27693;50.506;30.832;2024-03-08T05:40:49;116.78;103.11;65.11
42002;PMS7003;27693;50.506;30.832;2024-03-08T05:41:52;109.10;95.70;59.60
42002;PMS7003;27693;50.506;30.832;2024-03-08T05:42:57;86.10;64.40;40.60
42002;PMS7003;27693;50.506;30.832;2024-03-08T05:44:01;116.90;99.20;63.30
42002;PMS7003;27693;50.506;30.832;2024-03-08T05:45:05;102.40;85.20;55.60
42002;PMS7003;27693;50.506;30.832;2024-03-08T05:46:14;102.90;84.00;49.40
42002;PMS7003;27693;50.506;30.832;2024-03-08T05:47:17;104.70;89.50;58.10
42002;PMS7003;27693;50.506;30.832;2024-03-08T05:48:20;100.00;85.70;53.40
42002;PMS7003;27693;50.506;30.832;2024-03-08T05:49:23;101.60;84.70;54.80